sensor_id;sensor_type;location;lat;lon;timestamp;pressure;altitude;pressure_sealevel;temperature;humidity
10668;BME280;5382;42.136;24.796;2023-01-30T00:01:23;100332.63;;;4.01;100.00
10668;BME280;5382;42.136;24.796;2023-01-30T00:03:50;100327.41;;;4.00;100.00
10668;BME280;5382;42.136;24.796;2023-01-30T00:06:17;100314.75;;;3.89;100.00
10668;BME280;5382;42.136;24.796;2023-01-30T00:08:44;100334.56;;;3.96;100.00
10668;BME280;5382;42.136;24.796;2023-01-30T00:11:14;100333.41;;;4.03;100.00
10668;BME280;5382;42.136;24.796;2023-01-30T00:13:42;100336.19;;;3.99;100.00
10668;BME280;5382;42.136;24.796;2023-01-30T00:16:09;100335.34;;;3.98;100.00
10668;BME280;5382;42.136;24.796;2023-01-30T00:18:38;100340.44;;;4.03;100.00
10668;BME280;5382;42.136;24.796;2023-01-30T00:21:06;100336.38;;;3.94;100.00
10668;BME280;5382;42.136;24.796;2023-01-30T00:23:36;100328.06;;;4.06;100.00
10668;BME280;5382;42.136;24.796;2023-01-30T00:26:04;100335.75;;;4.11;100.00
10668;BME280;5382;42.136;24.796;2023-01-30T00:28:33;100332.56;;;4.03;100.00
10668;BME280;5382;42.136;24.796;2023-01-30T00:31:00;100328.78;;;4.10;100.00
10668;BME280;5382;42.136;24.796;2023-01-30T00:33:27;100327.97;;;4.08;100.00
10668;BME280;5382;42.136;24.796;2023-01-30T00:35:56;100331.13;;;3.94;100.00
10668;BME280;5382;42.136;24.796;2023-01-30T00:38:23;100339.84;;;3.94;100.00
10668;BME280;5382;42.136;24.796;2023-01-30T00:40:50;100325.72;;;3.99;100.00
10668;BME280;5382;42.136;24.796;2023-01-30T00:43:18;100320.63;;;3.96;100.00
10668;BME280;5382;42.136;24.796;2023-01-30T00:46:08;100333.34;;;4.05;100.00
10668;BME280;5382;42.136;24.796;2023-01-30T00:48:55;100337.00;;;4.01;100.00
10668;BME280;5382;42.136;24.796;2023-01-30T00:51:21;100327.38;;;4.01;100.00
10668;BME280;5382;42.136;24.796;2023-01-30T00:53:48;100318.59;;;4.02;100.00
10668;BME280;5382;42.136;24.796;2023-01-30T00:56:15;100335.53;;;3.93;100.00
10668;BME280;5382;42.136;24.796;2023-01-30T00:58:42;100328.31;;;4.00;100.00
10668;BME280;5382;42.136;24.796;2023-01-30T01:01:10;100324.09;;;3.96;100.00
10668;BME280;5382;42.136;24.796;2023-01-30T01:03:37;100327.38;;;4.01;100.00
10668;BME280;5382;42.136;24.796;2023-01-30T01:06:04;100318.31;;;4.10;100.00
10668;BME280;5382;42.136;24.796;2023-01-30T01:08:31;100314.97;;;4.06;100.00
10668;BME280;5382;42.136;24.796;2023-01-30T01:10:58;100299.03;;;3.89;100.00
10668;BME280;5382;42.136;24.796;2023-01-30T01:13:24;100312.94;;;3.91;100.00
10668;BME280;5382;42.136;24.796;2023-01-30T01:15:52;100317.34;;;3.89;100.00
10668;BME280;5382;42.136;24.796;2023-01-30T01:18:21;100320.16;;;3.84;100.00
10668;BME280;5382;42.136;24.796;2023-01-30T01:20:47;100306.22;;;3.84;100.00
10668;BME280;5382;42.136;24.796;2023-01-30T01:23:14;100308.78;;;3.85;100.00
10668;BME280;5382;42.136;24.796;2023-01-30T01:25:41;100308.91;;;3.82;100.00
10668;BME280;5382;42.136;24.796;2023-01-30T01:28:08;100302.75;;;3.83;100.00
10668;BME280;5382;42.136;24.796;2023-01-30T01:30:35;100306.28;;;3.82;100.00
10668;BME280;5382;42.136;24.796;2023-01-30T01:33:03;100294.94;;;3.82;100.00
10668;BME280;5382;42.136;24.796;2023-01-30T01:35:31;100307.06;;;3.84;100.00
10668;BME280;5382;42.136;24.796;2023-01-30T01:37:58;100299.72;;;3.94;100.00
10668;BME280;5382;42.136;24.796;2023-01-30T01:40:24;100304.16;;;3.92;100.00
10668;BME280;5382;42.136;24.796;2023-01-30T01:43:14;100299.97;;;3.88;100.00
10668;BME280;5382;42.136;24.796;2023-01-30T01:45:42;100296.66;;;3.83;100.00
10668;BME280;5382;42.136;24.796;2023-01-30T01:48:16;100294.66;;;3.89;100.00
10668;BME280;5382;42.136;24.796;2023-01-30T01:50:49;100301.91;;;3.83;100.00
10668;BME280;5382;42.136;24.796;2023-01-30T01:53:20;100301.78;;;3.86;100.00
10668;BME280;5382;42.136;24.796;2023-01-30T01:55:49;100302.34;;;3.94;100.00
10668;BME280;5382;42.136;24.796;2023-01-30T01:58:22;100303.19;;;3.94;100.00
10668;BME280;5382;42.136;24.796;2023-01-30T02:00:51;100289.53;;;3.86;100.00
10668;BME280;5382;42.136;24.796;2023-01-30T02:03:21;100295.16;;;3.99;100.00
10668;BME280;5382;42.136;24.796;2023-01-30T02:05:55;100290.34;;;3.88;100.00
10668;BME280;5382;42.136;24.796;2023-01-30T02:08:25;100296.59;;;3.84;100.00
10668;BME280;5382;42.136;24.796;2023-01-30T02:10:57;100293.81;;;3.89;100.00
10668;BME280;5382;42.136;24.796;2023-01-30T02:13:24;100292.72;;;3.94;100.00
10668;BME280;5382;42.136;24.796;2023-01-30T02:15:52;100290.03;;;3.96;100.00
10668;BME280;5382;42.136;24.796;2023-01-30T02:18:20;100288.44;;;3.92;100.00
10668;BME280;5382;42.136;24.796;2023-01-30T02:20:58;100284.94;;;3.93;100.00
10668;BME280;5382;42.136;24.796;2023-01-30T02:23:56;100298.81;;;3.95;100.00
10668;BME280;5382;42.136;24.796;2023-01-30T02:26:43;100290.28;;;3.90;100.00
10668;BME280;5382;42.136;24.796;2023-01-30T02:29:50;100275.03;;;3.78;100.00
10668;BME280;5382;42.136;24.796;2023-01-30T02:32:30;100277.66;;;3.78;100.00
10668;BME280;5382;42.136;24.796;2023-01-30T02:35:03;100270.25;;;3.65;100.00
10668;BME280;5382;42.136;24.796;2023-01-30T02:37:45;100278.56;;;3.77;100.00
10668;BME280;5382;42.136;24.796;2023-01-30T02:40:28;100284.19;;;3.66;100.00
10668;BME280;5382;42.136;24.796;2023-01-30T02:43:02;100275.66;;;3.61;100.00
10668;BME280;5382;42.136;24.796;2023-01-30T02:45:35;100279.94;;;3.63;100.00
10668;BME280;5382;42.136;24.796;2023-01-30T02:48:10;100280.84;;;3.62;100.00
10668;BME280;5382;42.136;24.796;2023-01-30T02:50:43;100272.03;;;3.65;100.00
10668;BME280;5382;42.136;24.796;2023-01-30T02:53:11;100280.19;;;3.79;100.00
10668;BME280;5382;42.136;24.796;2023-01-30T02:55:39;100274.38;;;3.72;100.00
10668;BME280;5382;42.136;24.796;2023-01-30T02:58:07;100252.06;;;3.62;100.00
10668;BME280;5382;42.136;24.796;2023-01-30T03:00:45;100269.13;;;3.72;100.00
10668;BME280;5382;42.136;24.796;2023-01-30T03:06:38;100270.94;;;3.70;100.00
10668;BME280;5382;42.136;24.796;2023-01-30T03:09:15;100273.31;;;3.77;100.00
10668;BME280;5382;42.136;24.796;2023-01-30T03:11:48;100268.50;;;3.66;100.00
10668;BME280;5382;42.136;24.796;2023-01-30T03:14:25;100260.72;;;3.64;100.00
10668;BME280;5382;42.136;24.796;2023-01-30T03:16:54;100273.31;;;3.77;100.00
10668;BME280;5382;42.136;24.796;2023-01-30T03:19:23;100266.38;;;3.76;100.00
10668;BME280;5382;42.136;24.796;2023-01-30T03:21:51;100258.81;;;3.68;100.00
10668;BME280;5382;42.136;24.796;2023-01-30T03:24:18;100262.53;;;3.62;100.00
10668;BME280;5382;42.136;24.796;2023-01-30T03:26:48;100256.09;;;3.71;100.00
10668;BME280;5382;42.136;24.796;2023-01-30T03:29:17;100257.81;;;3.72;100.00
10668;BME280;5382;42.136;24.796;2023-01-30T03:31:45;100247.72;;;3.61;100.00
10668;BME280;5382;42.136;24.796;2023-01-30T03:34:12;100248.69;;;3.59;100.00
10668;BME280;5382;42.136;24.796;2023-01-30T03:36:39;100252.06;;;3.62;100.00
10668;BME280;5382;42.136;24.796;2023-01-30T03:39:07;100252.06;;;3.62;100.00
10668;BME280;5382;42.136;24.796;2023-01-30T03:41:34;100257.84;;;3.70;100.00
10668;BME280;5382;42.136;24.796;2023-01-30T03:44:01;100250.97;;;3.68;100.00
10668;BME280;5382;42.136;24.796;2023-01-30T03:46:28;100252.75;;;3.67;100.00
10668;BME280;5382;42.136;24.796;2023-01-30T03:48:54;100257.97;;;3.67;100.00
10668;BME280;5382;42.136;24.796;2023-01-30T03:51:21;100252.75;;;3.67;100.00
10668;BME280;5382;42.136;24.796;2023-01-30T03:53:48;100254.69;;;3.62;100.00
10668;BME280;5382;42.136;24.796;2023-01-30T03:56:16;100258.88;;;3.66;100.00
10668;BME280;5382;42.136;24.796;2023-01-30T03:58:43;100252.66;;;3.69;100.00
10668;BME280;5382;42.136;24.796;2023-01-30T04:01:10;100254.56;;;3.65;100.00
10668;BME280;5382;42.136;24.796;2023-01-30T04:03:36;100251.78;;;3.70;100.00
10668;BME280;5382;42.136;24.796;2023-01-30T04:06:03;100252.88;;;3.64;100.00
10668;BME280;5382;42.136;24.796;2023-01-30T04:08:30;100251.03;;;3.66;100.00
10668;BME280;5382;42.136;24.796;2023-01-30T04:10:57;100237.63;;;3.52;100.00
10668;BME280;5382;42.136;24.796;2023-01-30T04:13:25;100246.75;;;3.64;100.00
10668;BME280;5382;42.136;24.796;2023-01-30T04:15:52;100244.09;;;3.65;100.00
10668;BME280;5382;42.136;24.796;2023-01-30T04:18:19;100251.50;;;3.54;100.00
10668;BME280;5382;42.136;24.796;2023-01-30T04:20:45;100224.19;;;3.38;100.00
10668;BME280;5382;42.136;24.796;2023-01-30T04:23:12;100252.19;;;3.59;100.00
10668;BME280;5382;42.136;24.796;2023-01-30T04:25:39;100243.69;;;3.53;100.00
10668;BME280;5382;42.136;24.796;2023-01-30T04:28:06;100245.63;;;3.47;100.00
10668;BME280;5382;42.136;24.796;2023-01-30T04:30:34;100245.47;;;3.52;100.00
10668;BME280;5382;42.136;24.796;2023-01-30T04:33:01;100246.56;;;3.46;100.00
10668;BME280;5382;42.136;24.796;2023-01-30T04:35:27;100244.06;;;3.43;100.00
10668;BME280;5382;42.136;24.796;2023-01-30T04:37:54;100239.69;;;3.44;100.00
10668;BME280;5382;42.136;24.796;2023-01-30T04:40:21;100242.00;;;3.52;100.00
10668;BME280;5382;42.136;24.796;2023-01-30T04:42:48;100238.16;;;3.38;100.00
10668;BME280;5382;42.136;24.796;2023-01-30T04:45:15;100260.59;;;3.44;100.00
10668;BME280;5382;42.136;24.796;2023-01-30T04:47:43;100249.50;;;3.37;100.00
10668;BME280;5382;42.136;24.796;2023-01-30T04:50:10;100241.13;;;3.27;100.00
10668;BME280;5382;42.136;24.796;2023-01-30T04:52:36;100242.63;;;3.35;100.00
10668;BME280;5382;42.136;24.796;2023-01-30T04:55:04;100246.72;;;3.42;100.00
10668;BME280;5382;42.136;24.796;2023-01-30T04:57:31;100236.56;;;3.33;100.00
10668;BME280;5382;42.136;24.796;2023-01-30T04:59:58;100243.53;;;3.34;100.00
10668;BME280;5382;42.136;24.796;2023-01-30T05:02:24;100244.78;;;3.23;100.00
10668;BME280;5382;42.136;24.796;2023-01-30T05:04:52;100221.44;;;3.17;100.00
10668;BME280;5382;42.136;24.796;2023-01-30T05:07:19;100230.63;;;3.29;100.00
10668;BME280;5382;42.136;24.796;2023-01-30T05:09:46;100244.63;;;3.28;100.00
10668;BME280;5382;42.136;24.796;2023-01-30T05:12:13;100243.66;;;3.31;100.00
10668;BME280;5382;42.136;24.796;2023-01-30T05:14:39;100241.19;;;3.26;100.00
10668;BME280;5382;42.136;24.796;2023-01-30T05:17:06;100242.03;;;3.26;100.00
10668;BME280;5382;42.136;24.796;2023-01-30T05:19:34;100234.09;;;3.30;100.00
10668;BME280;5382;42.136;24.796;2023-01-30T05:22:02;100246.97;;;3.36;100.00
10668;BME280;5382;42.136;24.796;2023-01-30T05:24:29;100245.03;;;3.41;100.00
10668;BME280;5382;42.136;24.796;2023-01-30T05:26:56;100249.72;;;3.31;100.00
10668;BME280;5382;42.136;24.796;2023-01-30T05:29:23;100240.13;;;3.32;100.00
10668;BME280;5382;42.136;24.796;2023-01-30T05:31:50;100240.75;;;3.38;100.00
10668;BME280;5382;42.136;24.796;2023-01-30T05:34:17;100242.22;;;3.45;100.00
10668;BME280;5382;42.136;24.796;2023-01-30T05:36:44;100247.56;;;3.42;100.00
10668;BME280;5382;42.136;24.796;2023-01-30T05:39:12;100229.41;;;3.38;100.00
10668;BME280;5382;42.136;24.796;2023-01-30T05:41:38;100252.19;;;3.36;100.00
10668;BME280;5382;42.136;24.796;2023-01-30T05:44:05;100248.75;;;3.34;100.00
10668;BME280;5382;42.136;24.796;2023-01-30T05:46:32;100226.41;;;3.25;100.00
10668;BME280;5382;42.136;24.796;2023-01-30T05:48:59;100239.19;;;3.33;100.00
10668;BME280;5382;42.136;24.796;2023-01-30T05:51:29;100240.13;;;3.32;100.00
10668;BME280;5382;42.136;24.796;2023-01-30T05:53:56;100250.06;;;3.22;100.00
10668;BME280;5382;42.136;24.796;2023-01-30T05:56:24;100253.31;;;3.28;100.00
10668;BME280;5382;42.136;24.796;2023-01-30T05:58:51;100240.34;;;3.25;100.00
10668;BME280;5382;42.136;24.796;2023-01-30T06:01:19;100237.06;;;3.20;100.00
10668;BME280;5382;42.136;24.796;2023-01-30T06:03:46;100245.22;;;3.11;100.00
10668;BME280;5382;42.136;24.796;2023-01-30T06:06:13;100244.25;;;3.14;100.00
10668;BME280;5382;42.136;24.796;2023-01-30T06:08:40;100245.84;;;3.18;100.00
10668;BME280;5382;42.136;24.796;2023-01-30T06:11:09;100253.59;;;3.21;100.00
10668;BME280;5382;42.136;24.796;2023-01-30T06:13:38;100264.09;;;3.19;100.00
10668;BME280;5382;42.136;24.796;2023-01-30T06:16:07;100252.81;;;3.17;100.00
10668;BME280;5382;42.136;24.796;2023-01-30T06:18:34;100252.81;;;3.17;100.00
10668;BME280;5382;42.136;24.796;2023-01-30T06:21:01;100255.34;;;3.20;100.00
10668;BME280;5382;42.136;24.796;2023-01-30T06:23:27;100245.25;;;3.10;100.00
10668;BME280;5382;42.136;24.796;2023-01-30T06:25:54;100245.84;;;3.18;100.00
10668;BME280;5382;42.136;24.796;2023-01-30T06:28:23;100245.16;;;3.13;100.00
10668;BME280;5382;42.136;24.796;2023-01-30T06:30:52;100259.66;;;3.21;100.00
10668;BME280;5382;42.136;24.796;2023-01-30T06:33:19;100257.16;;;3.18;100.00
10668;BME280;5382;42.136;24.796;2023-01-30T06:35:48;100262.94;;;3.28;100.00
10668;BME280;5382;42.136;24.796;2023-01-30T06:38:16;100284.72;;;3.27;100.00
10668;BME280;5382;42.136;24.796;2023-01-30T06:40:44;100262.97;;;3.26;100.00
10668;BME280;5382;42.136;24.796;2023-01-30T06:43:11;100268.19;;;3.26;100.00
10668;BME280;5382;42.136;24.796;2023-01-30T06:45:38;100264.63;;;3.29;100.00
10668;BME280;5382;42.136;24.796;2023-01-30T06:48:07;100268.16;;;3.28;100.00
10668;BME280;5382;42.136;24.796;2023-01-30T06:50:34;100256.03;;;3.25;100.00
10668;BME280;5382;42.136;24.796;2023-01-30T06:53:02;100269.88;;;3.27;100.00
10668;BME280;5382;42.136;24.796;2023-01-30T06:55:29;100279.38;;;3.30;100.00
10668;BME280;5382;42.136;24.796;2023-01-30T06:58:03;100277.03;;;3.22;100.00
10668;BME280;5382;42.136;24.796;2023-01-30T07:00:31;100280.31;;;3.29;100.00
10668;BME280;5382;42.136;24.796;2023-01-30T07:02:58;100266.16;;;3.35;100.00
10668;BME280;5382;42.136;24.796;2023-01-30T07:05:27;100271.47;;;3.33;100.00
10668;BME280;5382;42.136;24.796;2023-01-30T07:07:54;100273.28;;;3.31;100.00
10668;BME280;5382;42.136;24.796;2023-01-30T07:10:21;100280.97;;;3.36;100.00
10668;BME280;5382;42.136;24.796;2023-01-30T07:12:50;100275.72;;;3.36;100.00
10668;BME280;5382;42.136;24.796;2023-01-30T07:15:17;100256.94;;;3.24;100.00
10668;BME280;5382;42.136;24.796;2023-01-30T07:17:44;100278.44;;;3.33;100.00
10668;BME280;5382;42.136;24.796;2023-01-30T07:20:11;100270.84;;;3.25;100.00
10668;BME280;5382;42.136;24.796;2023-01-30T07:22:39;100277.72;;;3.27;100.00
10668;BME280;5382;42.136;24.796;2023-01-30T07:25:07;100249.44;;;3.15;100.00
10668;BME280;5382;42.136;24.796;2023-01-30T07:27:34;100249.72;;;3.31;100.00
10668;BME280;5382;42.136;24.796;2023-01-30T07:30:00;100274.81;;;3.37;100.00
10668;BME280;5382;42.136;24.796;2023-01-30T07:32:27;100270.38;;;3.39;100.00
10668;BME280;5382;42.136;24.796;2023-01-30T07:34:54;100272.88;;;3.42;100.00
10668;BME280;5382;42.136;24.796;2023-01-30T07:37:21;100265.84;;;3.44;100.00
10668;BME280;5382;42.136;24.796;2023-01-30T07:39:49;100280.69;;;3.43;100.00
10668;BME280;5382;42.136;24.796;2023-01-30T07:42:16;100264.19;;;3.41;100.00
10668;BME280;5382;42.136;24.796;2023-01-30T07:44:42;100278.94;;;3.42;100.00
10668;BME280;5382;42.136;24.796;2023-01-30T07:47:09;100264.75;;;3.49;100.00
10668;BME280;5382;42.136;24.796;2023-01-30T07:49:36;100255.22;;;3.48;100.00
10668;BME280;5382;42.136;24.796;2023-01-30T07:52:03;100271.56;;;3.54;100.00
10668;BME280;5382;42.136;24.796;2023-01-30T07:54:30;100273.19;;;3.56;100.00
10668;BME280;5382;42.136;24.796;2023-01-30T07:56:58;100278.97;;;3.66;100.00
10668;BME280;5382;42.136;24.796;2023-01-30T07:59:25;100262.66;;;3.59;100.00
10668;BME280;5382;42.136;24.796;2023-01-30T08:01:52;100221.53;;;3.39;100.00
10668;BME280;5382;42.136;24.796;2023-01-30T08:04:18;100268.44;;;3.67;100.00
10668;BME280;5382;42.136;24.796;2023-01-30T08:06:45;100271.28;;;3.61;100.00
10668;BME280;5382;42.136;24.796;2023-01-30T08:09:12;100270.38;;;3.62;100.00
10668;BME280;5382;42.136;24.796;2023-01-30T08:11:39;100256.66;;;3.56;100.00
10668;BME280;5382;42.136;24.796;2023-01-30T08:14:07;100266.00;;;3.63;100.00
10668;BME280;5382;42.136;24.796;2023-01-30T08:16:34;100265.84;;;3.67;100.00
10668;BME280;5382;42.136;24.796;2023-01-30T08:19:04;100229.41;;;3.38;100.00
10668;BME280;5382;42.136;24.796;2023-01-30T08:21:31;100135.22;;;2.69;100.00
10668;BME280;5382;42.136;24.796;2023-01-30T08:23:58;100261.50;;;3.66;100.00
10668;BME280;5382;42.136;24.796;2023-01-30T08:26:25;100248.25;;;3.47;100.00
10668;BME280;5382;42.136;24.796;2023-01-30T08:28:51;100266.00;;;3.63;100.00
10668;BME280;5382;42.136;24.796;2023-01-30T08:31:21;100259.91;;;3.62;100.00
10668;BME280;5382;42.136;24.796;2023-01-30T08:33:48;100133.47;;;2.93;100.00
10668;BME280;5382;42.136;24.796;2023-01-30T08:36:15;100255.19;;;3.72;100.00
10668;BME280;5382;42.136;24.796;2023-01-30T08:38:42;100234.34;;;3.69;100.00
10668;BME280;5382;42.136;24.796;2023-01-30T08:41:09;100243.50;;;3.81;100.00
10668;BME280;5382;42.136;24.796;2023-01-30T08:43:35;100246.00;;;3.84;100.00
10668;BME280;5382;42.136;24.796;2023-01-30T08:46:02;100255.25;;;3.70;100.00
10668;BME280;5382;42.136;24.796;2023-01-30T08:48:31;100253.88;;;3.60;100.00
10668;BME280;5382;42.136;24.796;2023-01-30T08:50:58;100250.69;;;3.52;100.00
10668;BME280;5382;42.136;24.796;2023-01-30T08:53:25;100255.66;;;3.60;100.00
10668;BME280;5382;42.136;24.796;2023-01-30T08:55:52;100253.03;;;3.60;100.00
10668;BME280;5382;42.136;24.796;2023-01-30T08:58:19;100221.94;;;3.52;100.00
10668;BME280;5382;42.136;24.796;2023-01-30T09:00:46;100234.72;;;3.60;100.00
10668;BME280;5382;42.136;24.796;2023-01-30T09:03:14;100220.44;;;3.45;100.00
10668;BME280;5382;42.136;24.796;2023-01-30T09:05:43;100212.66;;;3.67;100.00
10668;BME280;5382;42.136;24.796;2023-01-30T09:08:10;100241.47;;;3.65;100.00
10668;BME280;5382;42.136;24.796;2023-01-30T09:10:37;100240.69;;;3.63;100.00
10668;BME280;5382;42.136;24.796;2023-01-30T09:13:04;100221.69;;;3.58;100.00
10668;BME280;5382;42.136;24.796;2023-01-30T09:15:31;100238.75;;;3.68;100.00
10668;BME280;5382;42.136;24.796;2023-01-30T09:17:58;100232.06;;;3.83;100.00
10668;BME280;5382;42.136;24.796;2023-01-30T09:20:25;100218.06;;;3.84;100.00
10668;BME280;5382;42.136;24.796;2023-01-30T09:22:53;100228.31;;;3.90;100.00
10668;BME280;5382;42.136;24.796;2023-01-30T09:25:20;100229.88;;;3.72;100.00
10668;BME280;5382;42.136;24.796;2023-01-30T09:27:48;100217.81;;;3.68;100.00
10668;BME280;5382;42.136;24.796;2023-01-30T09:30:15;100202.59;;;3.78;100.00
10668;BME280;5382;42.136;24.796;2023-01-30T09:32:42;100213.25;;;3.74;100.00
10668;BME280;5382;42.136;24.796;2023-01-30T09:35:09;100203.41;;;3.80;100.00
10668;BME280;5382;42.136;24.796;2023-01-30T09:37:36;100188.59;;;3.57;100.00
10668;BME280;5382;42.136;24.796;2023-01-30T09:40:05;100190.63;;;3.72;100.00
10668;BME280;5382;42.136;24.796;2023-01-30T09:42:44;100182.75;;;3.72;100.00
10668;BME280;5382;42.136;24.796;2023-01-30T09:45:36;100178.25;;;3.76;100.00
10668;BME280;5382;42.136;24.796;2023-01-30T09:48:13;100170.09;;;3.84;100.00
10668;BME280;5382;42.136;24.796;2023-01-30T09:50:54;100175.16;;;3.88;100.00
10668;BME280;5382;42.136;24.796;2023-01-30T09:53:30;100185.69;;;3.87;100.00
10668;BME280;5382;42.136;24.796;2023-01-30T09:56:02;100195.13;;;3.91;100.00
10668;BME280;5382;42.136;24.796;2023-01-30T09:58:36;100168.22;;;3.87;100.00
10668;BME280;5382;42.136;24.796;2023-01-30T10:01:10;100162.91;;;3.89;100.00
10668;BME280;5382;42.136;24.796;2023-01-30T10:03:49;100155.72;;;3.94;100.00
10668;BME280;5382;42.136;24.796;2023-01-30T10:06:20;100154.63;;;4.00;100.00
10668;BME280;5382;42.136;24.796;2023-01-30T10:08:49;100141.47;;;4.01;100.00
10668;BME280;5382;42.136;24.796;2023-01-30T10:11:31;100126.88;;;3.96;100.00
10668;BME280;5382;42.136;24.796;2023-01-30T10:14:21;100105.75;;;4.00;100.00
10668;BME280;5382;42.136;24.796;2023-01-30T10:16:58;100105.53;;;4.05;100.00
10668;BME280;5382;42.136;24.796;2023-01-30T10:19:42;100118.72;;;4.24;100.00
10668;BME280;5382;42.136;24.796;2023-01-30T10:22:23;100116.63;;;4.32;100.00
10668;BME280;5382;42.136;24.796;2023-01-30T10:25:00;100103.25;;;4.38;100.00
10668;BME280;5382;42.136;24.796;2023-01-30T10:27:31;100092.88;;;4.36;100.00
10668;BME280;5382;42.136;24.796;2023-01-30T10:30:02;100089.84;;;4.46;100.00
10668;BME280;5382;42.136;24.796;2023-01-30T10:32:33;100090.16;;;4.58;100.00
10668;BME280;5382;42.136;24.796;2023-01-30T10:35:06;100091.31;;;4.51;100.00
10668;BME280;5382;42.136;24.796;2023-01-30T10:37:40;100078.38;;;4.48;100.00
10668;BME280;5382;42.136;24.796;2023-01-30T10:40:18;100056.94;;;4.38;100.00
10668;BME280;5382;42.136;24.796;2023-01-30T10:42:56;100065.22;;;4.50;100.00
10668;BME280;5382;42.136;24.796;2023-01-30T10:45:29;100056.84;;;4.42;100.00
10668;BME280;5382;42.136;24.796;2023-01-30T10:48:09;100060.88;;;4.49;100.00
10668;BME280;5382;42.136;24.796;2023-01-30T10:50:49;100049.97;;;4.39;100.00
10668;BME280;5382;42.136;24.796;2023-01-30T10:53:21;100049.66;;;4.66;100.00
10668;BME280;5382;42.136;24.796;2023-01-30T10:55:55;100055.44;;;4.72;100.00
10668;BME280;5382;42.136;24.796;2023-01-30T10:58:33;100039.56;;;4.56;100.00
10668;BME280;5382;42.136;24.796;2023-01-30T11:01:06;100020.88;;;4.64;100.00
10668;BME280;5382;42.136;24.796;2023-01-30T11:03:39;100029.88;;;4.58;100.00
10668;BME280;5382;42.136;24.796;2023-01-30T11:06:11;100018.41;;;4.61;100.00
10668;BME280;5382;42.136;24.796;2023-01-30T11:08:41;100020.47;;;4.54;100.00
10668;BME280;5382;42.136;24.796;2023-01-30T11:11:28;100003.19;;;4.69;100.00
10668;BME280;5382;42.136;24.796;2023-01-30T11:14:04;100007.47;;;4.51;100.00
10668;BME280;5382;42.136;24.796;2023-01-30T11:16:39;99993.19;;;4.58;100.00
10668;BME280;5382;42.136;24.796;2023-01-30T11:19:08;99978.69;;;4.70;100.00
10668;BME280;5382;42.136;24.796;2023-01-30T11:21:36;99994.59;;;4.85;100.00
10668;BME280;5382;42.136;24.796;2023-01-30T11:24:04;99961.78;;;4.95;100.00
10668;BME280;5382;42.136;24.796;2023-01-30T11:26:37;99974.72;;;5.17;100.00
10668;BME280;5382;42.136;24.796;2023-01-30T11:29:23;99971.94;;;5.20;100.00
10668;BME280;5382;42.136;24.796;2023-01-30T11:31:51;99971.25;;;5.16;100.00
10668;BME280;5382;42.136;24.796;2023-01-30T11:34:20;99956.53;;;5.14;100.00
10668;BME280;5382;42.136;24.796;2023-01-30T11:36:47;99954.97;;;5.10;100.00
10668;BME280;5382;42.136;24.796;2023-01-30T11:39:22;99956.81;;;5.08;100.00
10668;BME280;5382;42.136;24.796;2023-01-30T11:41:58;99951.28;;;5.14;100.00
10668;BME280;5382;42.136;24.796;2023-01-30T11:44:29;99948.16;;;5.06;100.00
10668;BME280;5382;42.136;24.796;2023-01-30T11:46:58;99940.00;;;5.12;100.00
10668;BME280;5382;42.136;24.796;2023-01-30T11:49:30;99947.88;;;5.12;100.00
10668;BME280;5382;42.136;24.796;2023-01-30T11:51:58;99927.84;;;4.92;100.00
10668;BME280;5382;42.136;24.796;2023-01-30T11:54:30;99923.44;;;4.92;100.00
10668;BME280;5382;42.136;24.796;2023-01-30T11:57:01;99935.41;;;4.98;100.00
10668;BME280;5382;42.136;24.796;2023-01-30T11:59:32;99918.19;;;5.11;100.00
10668;BME280;5382;42.136;24.796;2023-01-30T12:02:04;99930.56;;;5.08;100.00
10668;BME280;5382;42.136;24.796;2023-01-30T12:04:36;99893.34;;;4.82;100.00
10668;BME280;5382;42.136;24.796;2023-01-30T12:07:05;99884.50;;;4.85;100.00
10668;BME280;5382;42.136;24.796;2023-01-30T12:09:35;99891.53;;;4.84;100.00
10668;BME280;5382;42.136;24.796;2023-01-30T12:12:02;99896.59;;;4.87;100.00
10668;BME280;5382;42.136;24.796;2023-01-30T12:14:37;99842.16;;;4.75;100.00
10668;BME280;5382;42.136;24.796;2023-01-30T12:17:12;99887.13;;;4.85;100.00
10668;BME280;5382;42.136;24.796;2023-01-30T12:19:53;99884.13;;;4.92;97.41
10668;BME280;5382;42.136;24.796;2023-01-30T12:22:29;99855.75;;;5.00;100.00
10668;BME280;5382;42.136;24.796;2023-01-30T12:24:58;99883.84;;;5.16;92.05
10668;BME280;5382;42.136;24.796;2023-01-30T12:27:36;99876.59;;;5.21;88.91
10668;BME280;5382;42.136;24.796;2023-01-30T12:30:17;99881.44;;;5.29;91.31
10668;BME280;5382;42.136;24.796;2023-01-30T12:32:46;99870.72;;;5.16;89.66
10668;BME280;5382;42.136;24.796;2023-01-30T12:35:14;99862.78;;;5.00;89.30
10668;BME280;5382;42.136;24.796;2023-01-30T12:37:53;99859.88;;;5.06;88.61
10668;BME280;5382;42.136;24.796;2023-01-30T12:40:35;99873.34;;;4.98;89.22
10668;BME280;5382;42.136;24.796;2023-01-30T12:43:22;99870.41;;;5.05;89.77
10668;BME280;5382;42.136;24.796;2023-01-30T12:46:03;99865.16;;;5.05;88.14
10668;BME280;5382;42.136;24.796;2023-01-30T12:48:53;99858.25;;;5.03;88.22
10668;BME280;5382;42.136;24.796;2023-01-30T12:51:39;99876.97;;;4.96;87.62
10668;BME280;5382;42.136;24.796;2023-01-30T12:54:20;99819.28;;;4.78;88.49
10668;BME280;5382;42.136;24.796;2023-01-30T12:57:01;99838.16;;;5.02;87.80
10668;BME280;5382;42.136;24.796;2023-01-30T12:59:35;99835.94;;;5.12;88.40
10668;BME280;5382;42.136;24.796;2023-01-30T13:05:16;99829.25;;;5.07;89.97
10668;BME280;5382;42.136;24.796;2023-01-30T13:07:59;99806.88;;;4.99;88.81
10668;BME280;5382;42.136;24.796;2023-01-30T13:10:34;99823.59;;;5.14;89.19
10668;BME280;5382;42.136;24.796;2023-01-30T13:13:10;99837.72;;;5.12;86.71
10668;BME280;5382;42.136;24.796;2023-01-30T13:15:44;99837.09;;;4.89;86.58